createdAt,value
2017-03-14T00:00:07.137Z,82.1
2017-03-14T00:01:07.509Z,82.76
2017-03-14T00:02:07.496Z,82.67
2017-03-14T00:03:07.482Z,82.67
2017-03-14T00:04:07.470Z,82.39
2017-03-14T00:05:07.459Z,82.86
2017-03-14T00:06:07.441Z,83.24
2017-03-14T00:07:07.431Z,83.62
2017-03-14T00:08:07.428Z,83.24
2017-03-14T00:09:07.404Z,84
2017-03-14T00:10:07.389Z,83.52
2017-03-14T00:11:07.375Z,83.62
2017-03-14T00:12:07.361Z,83.62
2017-03-14T00:13:07.347Z,84
2017-03-14T00:14:07.336Z,83.95
2017-03-14T00:15:07.318Z,84.28
2017-03-14T00:16:07.312Z,84
2017-03-14T00:17:07.294Z,84.38
2017-03-14T00:18:07.278Z,84.23
2017-03-14T00:19:07.267Z,84.38
2017-03-14T00:20:07.255Z,84.42
2017-03-14T00:21:07.240Z,84.05
2017-03-14T00:22:07.225Z,84.33
2017-03-14T00:23:07.214Z,84.42
2017-03-14T00:24:07.198Z,84.14
2017-03-14T00:25:07.185Z,83.76
2017-03-14T00:26:07.170Z,84.33
2017-03-14T00:27:07.158Z,84.14
2017-03-14T00:28:07.143Z,84.52
2017-03-14T00:29:07.129Z,84.61
2017-03-14T00:30:07.116Z,84.52
2017-03-14T00:31:07.103Z,84.42
2017-03-14T00:32:07.090Z,84.42
2017-03-14T00:33:07.076Z,84.61
2017-03-14T00:34:07.060Z,84.61
2017-03-14T00:35:07.049Z,84.52
2017-03-14T00:36:07.031Z,85.09
2017-03-14T00:37:07.022Z,85
2017-03-14T00:38:07.006Z,85.19
2017-03-14T00:39:06.995Z,84.61
2017-03-14T00:40:06.979Z,84.9
2017-03-14T00:41:06.965Z,84.61
2017-03-14T00:42:06.952Z,85
2017-03-14T00:43:06.936Z,84.81
2017-03-14T00:44:06.923Z,85
2017-03-14T00:45:06.912Z,85.19
2017-03-14T00:46:06.897Z,85.09
2017-03-14T00:47:06.881Z,85.47
2017-03-14T00:48:06.865Z,85.47
2017-03-14T00:49:06.854Z,85.38
2017-03-14T00:50:06.841Z,85.47
2017-03-14T00:51:06.828Z,85.38
2017-03-14T00:52:06.813Z,85.94
2017-03-14T00:53:06.797Z,86.04
2017-03-14T00:54:06.785Z,85.75
2017-03-14T00:55:06.771Z,85.57
2017-03-14T00:56:06.758Z,85.66
2017-03-14T00:57:06.742Z,85.75
2017-03-14T00:58:06.728Z,85.75
2017-03-14T00:59:06.718Z,85.57
2017-03-14T01:00:06.701Z,86.41
2017-03-14T01:01:06.688Z,85.66
2017-03-14T01:02:06.286Z,85.57
2017-03-14T01:03:06.664Z,86.32
2017-03-14T01:04:06.645Z,86.32
2017-03-14T01:05:06.632Z,86.13
2017-03-14T01:06:06.616Z,86.04
2017-03-14T01:07:06.605Z,85.94
2017-03-14T01:08:06.591Z,85.85
2017-03-14T01:09:06.577Z,85.85
2017-03-14T01:10:06.565Z,85.94
2017-03-14T01:11:06.167Z,86.04
2017-03-14T01:12:06.535Z,86.04
2017-03-14T01:13:06.516Z,85.85
2017-03-14T01:14:06.117Z,86.04
2017-03-14T01:15:06.490Z,86.51
2017-03-14T01:16:06.478Z,86.6
2017-03-14T01:17:06.076Z,86.7
2017-03-14T01:18:06.700Z,86.6
2017-03-14T01:19:06.434Z,86.98
2017-03-14T01:20:06.418Z,87.17
2017-03-14T01:21:06.406Z,87.17
2017-03-14T01:22:06.393Z,87.08
2017-03-14T01:23:06.383Z,87.17
2017-03-14T01:24:06.367Z,86.98
2017-03-14T01:25:06.354Z,86.98
2017-03-14T01:26:06.339Z,87.17
2017-03-14T01:27:06.324Z,86.7
2017-03-14T01:28:06.309Z,86.7
2017-03-14T01:29:06.293Z,86.98
2017-03-14T01:30:06.295Z,87.08
2017-03-14T01:31:06.268Z,87.08
2017-03-14T01:32:06.256Z,87.17
2017-03-14T01:33:06.240Z,86.89
2017-03-14T01:34:06.223Z,86.89
2017-03-14T01:35:06.211Z,87.27
2017-03-14T01:36:06.198Z,87.27
2017-03-14T01:37:06.184Z,87.17
2017-03-14T01:38:06.169Z,87.46
2017-03-14T01:39:06.155Z,87.55
2017-03-14T01:40:05.755Z,87.36
2017-03-14T01:41:06.129Z,87.74
2017-03-14T01:42:06.114Z,87.65
2017-03-14T01:43:06.098Z,87.55
2017-03-14T01:44:06.088Z,86.89
2017-03-14T01:45:06.068Z,87.31
2017-03-14T01:46:06.056Z,86.93
2017-03-14T01:47:06.042Z,86.65
2017-03-14T01:48:06.033Z,86.46
2017-03-14T01:49:06.015Z,86.08
2017-03-14T01:50:06.000Z,86.18
2017-03-14T01:51:05.989Z,85.7
2017-03-14T01:52:05.586Z,85.32
2017-03-14T01:53:05.960Z,85.32
2017-03-14T01:54:05.947Z,85.32
2017-03-14T01:55:05.545Z,84.94
2017-03-14T01:56:05.919Z,84.85
2017-03-14T01:57:05.517Z,85.23
2017-03-14T01:58:05.891Z,84.94
2017-03-14T01:59:05.878Z,84.56
2017-03-14T02:00:05.476Z,84.75
2017-03-14T02:01:05.849Z,84.85
2017-03-14T02:02:05.846Z,84.66
2017-03-14T02:03:05.823Z,84.66
2017-03-14T02:04:05.809Z,84.28
2017-03-14T02:05:05.799Z,84.28
2017-03-14T02:06:05.782Z,84.38
2017-03-14T02:07:05.774Z,84.38
2017-03-14T02:08:05.783Z,84.38
2017-03-14T02:09:05.741Z,84
2017-03-14T02:10:05.727Z,84.09
2017-03-14T02:11:05.716Z,84.09
2017-03-14T02:12:05.314Z,84
2017-03-14T02:13:05.687Z,84.19
2017-03-14T02:14:05.677Z,84.47
2017-03-14T02:15:05.273Z,84
2017-03-14T02:16:05.654Z,84.56
2017-03-14T02:17:05.633Z,84.75
2017-03-14T02:18:05.621Z,84.47
2017-03-14T02:19:05.606Z,84.56
2017-03-14T02:20:05.593Z,84
2017-03-14T02:21:05.581Z,84.19
2017-03-14T02:22:05.565Z,83.81
2017-03-14T02:23:05.551Z,84.19
2017-03-14T02:24:05.538Z,83.81
2017-03-14T02:25:05.144Z,83.81
2017-03-14T02:26:05.511Z,83.9
2017-03-14T02:27:05.500Z,84.09
2017-03-14T02:28:05.486Z,83.52
2017-03-14T02:29:05.474Z,83.85
2017-03-14T02:30:05.455Z,83.18
2017-03-14T02:31:05.445Z,83.66
2017-03-14T02:32:05.429Z,83.37
2017-03-14T02:33:05.416Z,83.09
2017-03-14T02:34:05.402Z,82.71
2017-03-14T02:35:05.390Z,82.9
2017-03-14T02:36:05.382Z,82.24
2017-03-14T02:37:05.365Z,82.71
2017-03-14T02:38:05.350Z,82.33
2017-03-14T02:39:05.342Z,82.71
2017-03-14T02:40:05.326Z,82.52
2017-03-14T02:41:05.310Z,81.86
2017-03-14T02:42:04.912Z,82.14
2017-03-14T02:43:05.285Z,82.05
2017-03-14T02:44:05.271Z,81.48
2017-03-14T02:45:05.259Z,81.86
2017-03-14T02:46:05.247Z,81.1
2017-03-14T02:47:05.229Z,81.57
2017-03-14T02:48:05.218Z,81.67
2017-03-14T02:49:05.221Z,81.67
2017-03-14T02:50:05.193Z,81.57
2017-03-14T02:51:05.190Z,81.76
2017-03-14T02:52:05.163Z,81.76
2017-03-14T02:53:05.153Z,81.57
2017-03-14T02:54:05.139Z,81.57
2017-03-14T02:55:05.129Z,82.05
2017-03-14T02:56:05.112Z,81.95
2017-03-14T02:57:05.101Z,81.95
2017-03-14T02:58:05.088Z,82.05
2017-03-14T02:59:05.076Z,82.14
2017-03-14T03:00:05.061Z,82.24
2017-03-14T03:01:05.046Z,82.24
2017-03-14T03:02:05.036Z,82.14
2017-03-14T03:03:05.026Z,81.95
2017-03-14T03:04:05.009Z,82.05
2017-03-14T03:05:04.997Z,82.05
2017-03-14T03:06:04.983Z,82.05
2017-03-14T03:07:04.973Z,82.33
2017-03-14T03:08:04.957Z,82.24
2017-03-14T03:09:04.944Z,82.52
2017-03-14T03:10:04.931Z,82.52
2017-03-14T03:11:04.917Z,82.24
2017-03-14T03:12:04.903Z,82.33
2017-03-14T03:13:04.892Z,82.52
2017-03-14T03:14:04.877Z,82.43
2017-03-14T03:15:04.864Z,82.43
2017-03-14T03:16:04.851Z,82.43
2017-03-14T03:17:04.836Z,82.33
2017-03-14T03:18:04.825Z,82.33
2017-03-14T03:19:04.814Z,82.43
2017-03-14T03:20:04.799Z,82.43
2017-03-14T03:21:04.786Z,82.62
2017-03-14T03:22:04.771Z,82.24
2017-03-14T03:23:04.760Z,82.81
2017-03-14T03:24:04.749Z,82.71
2017-03-14T03:25:04.732Z,82.62
2017-03-14T03:26:04.721Z,82.62
2017-03-14T03:27:04.714Z,82.43
2017-03-14T03:28:04.694Z,82.33
2017-03-14T03:29:04.679Z,82.71
2017-03-14T03:30:04.668Z,82.71
2017-03-14T03:31:04.655Z,82.33
2017-03-14T03:32:04.639Z,82.62
2017-03-14T03:33:04.630Z,82.52
2017-03-14T03:34:04.615Z,82.62
2017-03-14T03:35:04.604Z,82.52
2017-03-14T03:36:04.592Z,82.62
2017-03-14T03:37:04.577Z,82.71
2017-03-14T03:38:04.562Z,82.52
2017-03-14T03:39:04.551Z,82.71
2017-03-14T03:40:04.537Z,82.81
2017-03-14T03:41:04.526Z,82.81
2017-03-14T03:42:04.513Z,82.71
2017-03-14T03:43:04.500Z,82.71
2017-03-14T03:44:04.484Z,82.71
2017-03-14T03:45:04.472Z,82.71
2017-03-14T03:46:04.461Z,82.71
2017-03-14T03:47:04.449Z,82.52
2017-03-14T03:48:04.436Z,82.9
2017-03-14T03:49:04.421Z,82.81
2017-03-14T03:50:04.031Z,83.47
2017-03-14T03:51:04.394Z,83
2017-03-14T03:52:04.381Z,83.28
2017-03-14T03:53:04.371Z,83
2017-03-14T03:54:04.355Z,83.09
2017-03-14T03:55:04.348Z,83.47
2017-03-14T03:56:04.331Z,83.09
2017-03-14T03:57:04.318Z,83.66
2017-03-14T03:58:04.305Z,83.47
2017-03-14T03:59:04.291Z,83.28
2017-03-14T04:00:04.277Z,83.09
2017-03-14T04:01:04.266Z,83.18
2017-03-14T04:02:04.250Z,83.28
2017-03-14T04:03:04.241Z,83.37
2017-03-14T04:04:04.230Z,84.04
2017-03-14T04:05:04.215Z,83.85
2017-03-14T04:06:04.209Z,83.85
2017-03-14T04:07:04.189Z,83.18
2017-03-14T04:08:04.175Z,83
2017-03-14T04:09:04.161Z,83.28
2017-03-14T04:10:04.149Z,83.18
2017-03-14T04:11:04.140Z,83.18
2017-03-14T04:12:04.124Z,83.18
2017-03-14T04:13:04.110Z,83.28
2017-03-14T04:14:04.096Z,83.18
2017-03-14T04:15:04.085Z,83.37
2017-03-14T04:16:04.074Z,83.42
2017-03-14T04:17:04.061Z,83.51
2017-03-14T04:18:04.047Z,83.51
2017-03-14T04:19:04.041Z,82.94
2017-03-14T04:20:04.021Z,83.04
2017-03-14T04:21:04.008Z,82.85
2017-03-14T04:22:03.995Z,82.85
2017-03-14T04:23:03.982Z,82.75
2017-03-14T04:24:03.967Z,82.85
2017-03-14T04:25:03.958Z,82.47
2017-03-14T04:26:03.947Z,82.56
2017-03-14T04:27:03.929Z,82.85
2017-03-14T04:28:03.918Z,82.09
2017-03-14T04:29:03.906Z,82.56
2017-03-14T04:30:03.893Z,82.56
2017-03-14T04:31:03.878Z,82.75
2017-03-14T04:32:03.868Z,82.75
2017-03-14T04:33:03.856Z,82.66
2017-03-14T04:34:03.842Z,82.37
2017-03-14T04:35:03.444Z,82.56
2017-03-14T04:36:03.817Z,82.37
2017-03-14T04:37:03.805Z,81.9
2017-03-14T04:38:03.789Z,82.18
2017-03-14T04:39:03.782Z,82.09
2017-03-14T04:40:03.378Z,82.09
2017-03-14T04:41:03.755Z,82.09
2017-03-14T04:42:03.742Z,82.18
2017-03-14T04:43:03.731Z,82.28
2017-03-14T04:44:03.329Z,82.28
2017-03-14T04:45:03.702Z,82.09
2017-03-14T04:46:03.696Z,81.81
2017-03-14T04:47:03.294Z,81.9
2017-03-14T04:48:03.280Z,81.52
2017-03-14T04:49:03.267Z,81.62
2017-03-14T04:50:03.641Z,81.71
2017-03-14T04:51:03.241Z,81.62
2017-03-14T04:52:03.615Z,81.62
2017-03-14T04:53:03.603Z,81.33
2017-03-14T04:54:03.589Z,81.52
2017-03-14T04:55:03.578Z,81.33
2017-03-14T04:56:03.564Z,80.95
2017-03-14T04:57:03.554Z,81.05
2017-03-14T04:58:03.538Z,81.24
2017-03-14T04:59:03.142Z,81.43
2017-03-14T05:00:03.515Z,81.33
2017-03-14T05:01:03.502Z,81.05
2017-03-14T05:02:03.492Z,81.05
2017-03-14T05:03:03.477Z,80.95
2017-03-14T05:04:03.468Z,81.05
2017-03-14T05:05:03.451Z,80.33
2017-03-14T05:06:03.441Z,80.62
2017-03-14T05:07:03.427Z,81.37
2017-03-14T05:08:03.415Z,80.14
2017-03-14T05:09:03.402Z,80.33
2017-03-14T05:10:03.392Z,80.33
2017-03-14T05:11:03.377Z,80.8
2017-03-14T05:12:03.365Z,80.8
2017-03-14T05:13:02.967Z,80.8
2017-03-14T05:14:03.343Z,80.33
2017-03-14T05:15:02.941Z,80.8
2017-03-14T05:16:02.939Z,80.14
2017-03-14T05:17:03.304Z,80.14
2017-03-14T05:18:03.293Z,80.24
2017-03-14T05:19:02.891Z,79.95
2017-03-14T05:20:03.267Z,80.24
2017-03-14T05:21:02.870Z,79.85
2017-03-14T05:22:03.247Z,79.57
2017-03-14T05:23:03.232Z,79.76
2017-03-14T05:24:03.220Z,79.76
2017-03-14T05:25:03.203Z,79.76
2017-03-14T05:26:02.804Z,79.57
2017-03-14T05:27:03.183Z,79.57
2017-03-14T05:28:03.168Z,79.57
2017-03-14T05:29:03.156Z,79.57
2017-03-14T05:30:03.144Z,79.47
2017-03-14T05:31:02.745Z,79.66
2017-03-14T05:32:03.120Z,79.66
2017-03-14T05:33:03.108Z,79.76
2017-03-14T05:34:03.094Z,79.57
2017-03-14T05:35:02.695Z,79.76
2017-03-14T05:36:02.682Z,79.76
2017-03-14T05:37:03.058Z,80.04
2017-03-14T05:38:03.046Z,79.95
2017-03-14T05:39:03.037Z,80.24
2017-03-14T05:40:03.025Z,79.38
2017-03-14T05:41:03.011Z,79.52
2017-03-14T05:42:02.996Z,79.1
2017-03-14T05:43:02.986Z,79.57
2017-03-14T05:44:02.972Z,79.52
2017-03-14T05:45:02.965Z,78.66
2017-03-14T05:46:02.955Z,78.85
2017-03-14T05:47:02.941Z,78.95
2017-03-14T05:48:02.925Z,78.66
2017-03-14T05:49:02.914Z,78.75
2017-03-14T05:50:02.901Z,78.85
2017-03-14T05:51:02.889Z,78.47
2017-03-14T05:52:02.877Z,78.47
2017-03-14T05:53:02.869Z,78.28
2017-03-14T05:54:02.855Z,78.56
2017-03-14T05:55:02.455Z,78.28
2017-03-14T05:56:02.831Z,77.9
2017-03-14T05:57:02.821Z,77.81
2017-03-14T05:58:02.805Z,77.9
2017-03-14T05:59:02.795Z,78.19
2017-03-14T06:00:02.812Z,78.09
2017-03-14T06:01:02.388Z,78.09
2017-03-14T06:02:02.759Z,77.71
2017-03-14T06:03:02.748Z,78.09
2017-03-14T06:04:02.740Z,77.71
2017-03-14T06:05:02.340Z,77.94
2017-03-14T06:06:02.330Z,76.99
2017-03-14T06:07:02.703Z,77.09
2017-03-14T06:08:02.692Z,77.28
2017-03-14T06:09:02.679Z,77.47
2017-03-14T06:10:02.669Z,76.71
2017-03-14T06:11:02.657Z,76.71
2017-03-14T06:12:02.646Z,76.9
2017-03-14T06:13:02.634Z,77.09
2017-03-14T06:14:02.626Z,76.52
2017-03-14T06:15:02.611Z,76.9
2017-03-14T06:16:02.601Z,76.52
2017-03-14T06:17:02.595Z,76.32
2017-03-14T06:18:02.579Z,76.61
2017-03-14T06:19:02.569Z,76.61
2017-03-14T06:20:02.557Z,76.42
2017-03-14T06:21:02.551Z,76.61
2017-03-14T06:22:02.538Z,75.76
2017-03-14T06:23:02.525Z,76.14
2017-03-14T06:24:02.517Z,75.7
2017-03-14T06:25:02.505Z,76.18
2017-03-14T06:26:02.492Z,75.42
2017-03-14T06:27:02.480Z,75.51
2017-03-14T06:28:02.469Z,75.32
2017-03-14T06:29:02.074Z,74.85
2017-03-14T06:30:02.449Z,74.56
2017-03-14T06:31:02.438Z,74.56
2017-03-14T06:32:02.427Z,74.56
2017-03-14T06:33:02.417Z,74.56
2017-03-14T06:34:02.407Z,74.27
2017-03-14T06:35:02.396Z,74.18
2017-03-14T06:36:02.383Z,74.56
2017-03-14T06:37:02.375Z,73.99
2017-03-14T06:38:02.364Z,74.08
2017-03-14T06:39:02.354Z,74.12
2017-03-14T06:40:02.343Z,73.65
2017-03-14T06:41:02.334Z,73.84
2017-03-14T06:42:02.323Z,72.99
2017-03-14T06:43:02.316Z,72.79
2017-03-14T06:44:02.303Z,72.79
2017-03-14T06:45:02.293Z,72.51
2017-03-14T06:46:02.282Z,72.41
2017-03-14T06:47:02.272Z,72.13
2017-03-14T06:48:02.267Z,72.32
2017-03-14T06:49:02.253Z,72.16
2017-03-14T06:50:01.863Z,71.78
2017-03-14T06:51:02.234Z,71.31
2017-03-14T06:52:02.224Z,71.31
2017-03-14T06:53:02.213Z,70.93
2017-03-14T06:54:02.203Z,71.41
2017-03-14T06:55:02.195Z,71.31
2017-03-14T06:56:02.196Z,70.93
2017-03-14T06:57:02.175Z,70.64
2017-03-14T06:58:02.164Z,71.22
2017-03-14T06:59:02.157Z,70.93
2017-03-14T07:00:02.146Z,70.83
2017-03-14T07:01:02.137Z,70.45
2017-03-14T07:02:02.129Z,70.17
2017-03-14T07:03:02.117Z,70.3
2017-03-14T07:04:02.116Z,70.1
2017-03-14T07:05:02.104Z,70.2
2017-03-14T07:06:02.093Z,70.1
2017-03-14T07:07:02.084Z,69.63
2017-03-14T07:08:02.073Z,69.15
2017-03-14T07:09:02.066Z,69.54
2017-03-14T07:10:02.057Z,69.54
2017-03-14T07:11:02.046Z,68.62
2017-03-14T07:12:02.041Z,68.24
2017-03-14T07:13:02.029Z,68.62
2017-03-14T07:14:02.023Z,68.33
2017-03-14T07:15:02.015Z,68.52
2017-03-14T07:16:02.008Z,68.33
2017-03-14T07:17:01.996Z,68.24
2017-03-14T07:18:01.988Z,68.43
2017-03-14T07:19:01.981Z,67.95
2017-03-14T07:20:01.970Z,67.47
2017-03-14T07:21:01.965Z,67.67
2017-03-14T07:22:01.953Z,67.19
2017-03-14T07:23:01.947Z,67
2017-03-14T07:24:01.941Z,66.85
2017-03-14T07:25:01.933Z,66.37
2017-03-14T07:26:01.928Z,66.37
2017-03-14T07:27:01.918Z,66.18
2017-03-14T07:28:01.908Z,65.99
2017-03-14T07:29:01.906Z,65.7
2017-03-14T07:30:01.891Z,65.13
2017-03-14T07:31:01.887Z,65.32
2017-03-14T07:32:01.879Z,65.36
2017-03-14T07:33:01.870Z,65.32
2017-03-14T07:34:01.862Z,65.8
2017-03-14T07:35:01.858Z,65.36
2017-03-14T07:36:01.856Z,64.87
2017-03-14T07:37:01.843Z,64.97
2017-03-14T07:38:01.833Z,64.97
2017-03-14T07:39:01.825Z,64.02
2017-03-14T07:40:01.820Z,63.73
2017-03-14T07:41:01.846Z,63.45
2017-03-14T07:42:01.805Z,63.83
2017-03-14T07:43:01.801Z,63.2
2017-03-14T07:44:01.789Z,63.2
2017-03-14T07:45:01.784Z,62.81
2017-03-14T07:46:01.774Z,62.72
2017-03-14T07:47:01.769Z,62.62
2017-03-14T07:48:01.764Z,62.62
2017-03-14T07:49:01.756Z,62.91
2017-03-14T07:50:01.749Z,62.34
2017-03-14T07:51:01.742Z,62.24
2017-03-14T07:52:01.741Z,62.37
2017-03-14T07:53:01.734Z,61.99
2017-03-14T07:54:01.721Z,61.6
2017-03-14T07:55:01.717Z,61.7
2017-03-14T07:56:01.712Z,61.32
2017-03-14T07:57:01.701Z,61.22
2017-03-14T07:58:01.700Z,61.32
2017-03-14T07:59:01.690Z,61.04
2017-03-14T08:00:01.715Z,60.94
2017-03-14T08:01:01.676Z,60.84
2017-03-14T08:02:01.285Z,60.94
2017-03-14T08:03:01.665Z,60.75
2017-03-14T08:04:01.660Z,60.27
2017-03-14T08:05:01.662Z,60.94
2017-03-14T08:06:01.676Z,60.75
2017-03-14T08:07:01.638Z,61.04
2017-03-14T08:08:01.633Z,60.94
2017-03-14T08:09:01.629Z,60.17
2017-03-14T08:10:01.629Z,60.46
2017-03-14T08:11:01.614Z,59.89
2017-03-14T08:12:01.608Z,59.53
2017-03-14T08:13:01.601Z,59.51
2017-03-14T08:14:01.594Z,59.92
2017-03-14T08:15:01.589Z,59.73
2017-03-14T08:16:01.584Z,59.6
2017-03-14T08:17:01.577Z,59.73
2017-03-14T08:18:01.572Z,58.84
2017-03-14T08:19:01.567Z,59.6
2017-03-14T08:20:01.560Z,59.89
2017-03-14T08:21:01.555Z,59.34
2017-03-14T08:22:01.548Z,59.31
2017-03-14T08:23:01.540Z,59.41
2017-03-14T08:24:01.541Z,59.63
2017-03-14T08:25:01.534Z,59.53
2017-03-14T08:26:01.523Z,59.73
2017-03-14T08:27:01.521Z,59.44
2017-03-14T08:28:01.510Z,58.87
2017-03-14T08:29:01.507Z,59.16
2017-03-14T08:30:01.506Z,60.02
2017-03-14T08:31:01.495Z,59.6
2017-03-14T08:32:01.488Z,59.6
2017-03-14T08:33:01.483Z,60.36
2017-03-14T08:34:01.477Z,60.75
2017-03-14T08:35:01.473Z,61.32
2017-03-14T08:36:01.465Z,61.38
2017-03-14T08:37:01.462Z,62.05
2017-03-14T08:38:01.452Z,61.86
2017-03-14T08:39:01.448Z,62.34
2017-03-14T08:40:01.439Z,62.62
2017-03-14T08:41:01.434Z,62.72
2017-03-14T08:42:01.433Z,63.1
2017-03-14T08:43:01.419Z,63
2017-03-14T08:44:01.411Z,63.29
2017-03-14T08:45:01.407Z,62.72
2017-03-14T08:46:01.401Z,62.91
2017-03-14T08:47:01.396Z,62.52
2017-03-14T08:48:01.001Z,62.81
2017-03-14T08:49:01.379Z,62.72
2017-03-14T08:50:00.988Z,62.43
2017-03-14T08:51:01.367Z,62.37
2017-03-14T08:52:01.361Z,62.46
2017-03-14T08:53:01.354Z,62.37
2017-03-14T08:54:01.347Z,62.27
2017-03-14T08:55:01.342Z,61.89
2017-03-14T08:56:01.335Z,61.8
2017-03-14T08:57:01.329Z,61.7
2017-03-14T08:58:01.322Z,62.08
2017-03-14T09:00:01.310Z,62.65
2017-03-14T09:01:01.307Z,62.37
2017-03-14T09:02:01.298Z,62.65
2017-03-14T09:03:01.290Z,62.56
2017-03-14T09:04:01.283Z,62.27
2017-03-14T09:05:00.895Z,62.65
2017-03-14T09:06:00.882Z,62.46
2017-03-14T09:07:00.876Z,62.56
2017-03-14T09:08:01.256Z,63.04
2017-03-14T09:09:01.251Z,63.32
2017-03-14T09:10:01.245Z,63.23
2017-03-14T09:11:01.239Z,63.32
2017-03-14T09:12:01.230Z,63.13
2017-03-14T09:13:01.224Z,63.51
2017-03-14T09:14:01.222Z,63.42
2017-03-14T09:15:01.211Z,63.32
2017-03-14T09:16:01.204Z,62.94
2017-03-14T09:17:01.199Z,62.37
2017-03-14T09:18:01.193Z,62.27
2017-03-14T09:19:01.192Z,62.56
2017-03-14T09:20:01.179Z,61.89
2017-03-14T09:21:01.172Z,62.02
2017-03-14T09:22:01.164Z,61.73
2017-03-14T09:23:01.162Z,61.92
2017-03-14T09:24:01.153Z,61.83
2017-03-14T09:25:01.147Z,61.54
2017-03-14T09:27:01.135Z,61.54
2017-03-14T09:28:01.132Z,61.54
2017-03-14T09:29:01.126Z,61.16
2017-03-14T09:30:01.118Z,61.35
2017-03-14T09:31:00.723Z,61.35
2017-03-14T09:32:01.103Z,61.38
2017-03-14T09:33:01.099Z,60.9
2017-03-14T09:34:01.308Z,60.81
2017-03-14T09:35:01.087Z,61
2017-03-14T09:36:01.091Z,60.14
2017-03-14T09:37:01.078Z,59.95
2017-03-14T09:38:01.069Z,59.76
2017-03-14T09:39:01.064Z,58.93
2017-03-14T09:40:01.058Z,59.09
2017-03-14T09:41:01.052Z,59.66
2017-03-14T09:42:01.051Z,59.02
2017-03-14T09:43:01.069Z,58.73
2017-03-14T09:44:01.037Z,59.02
2017-03-14T09:45:01.030Z,58.93
2017-03-14T09:46:01.029Z,58.64
2017-03-14T09:47:01.021Z,58.73
2017-03-14T09:48:01.016Z,58.54
2017-03-14T09:49:01.011Z,58.83
2017-03-14T09:50:01.009Z,58.73
2017-03-14T09:51:01.001Z,58.07
2017-03-14T09:52:00.994Z,57.59
2017-03-14T09:53:00.986Z,57.68
2017-03-14T09:54:00.984Z,57.4
2017-03-14T09:55:00.980Z,57.68
2017-03-14T09:56:00.982Z,57.5
2017-03-14T09:57:00.968Z,57.68
2017-03-14T09:58:00.963Z,57.78
2017-03-14T09:59:00.957Z,57.4
2017-03-14T10:00:00.953Z,57.31
2017-03-14T10:01:00.948Z,57.11
2017-03-14T10:02:00.944Z,57.68
2017-03-14T10:03:00.937Z,57.5
2017-03-14T10:04:00.934Z,57.46
2017-03-14T10:05:00.926Z,58.23
2017-03-14T10:06:00.534Z,58.42
2017-03-14T10:07:00.914Z,58.42
2017-03-14T10:08:00.908Z,58.61
2017-03-14T10:09:00.518Z,58.61
2017-03-14T10:10:00.898Z,58.7
2017-03-14T10:11:00.894Z,58.7
2017-03-14T10:12:00.888Z,58.61
2017-03-14T10:13:00.883Z,58.7
2017-03-14T10:14:00.490Z,59.19
2017-03-14T10:15:00.870Z,59.09
2017-03-14T10:16:00.867Z,58.8
2017-03-14T10:17:00.860Z,58.64
2017-03-14T10:18:00.858Z,59.02
2017-03-14T10:19:00.853Z,58.7
2017-03-14T10:20:00.844Z,58.93
2017-03-14T10:21:00.842Z,58.16
2017-03-14T10:22:00.839Z,58.36
2017-03-14T10:23:00.744Z,57.97
2017-03-14T10:24:00.739Z,58.23
2017-03-14T10:25:00.730Z,58.42
2017-03-14T10:26:00.725Z,58.9
2017-03-14T10:27:00.720Z,58.8
2017-03-14T10:28:00.715Z,58.9
2017-03-14T10:29:00.709Z,58.8
2017-03-14T10:30:00.706Z,58.8
2017-03-14T10:31:00.697Z,58.99
2017-03-14T10:32:00.693Z,59.09
2017-03-14T10:33:00.694Z,58.9
2017-03-14T10:34:00.684Z,58.8
2017-03-14T10:35:00.678Z,58.9
2017-03-14T10:36:00.678Z,58.45
2017-03-14T10:37:00.668Z,57.97
2017-03-14T10:38:00.358Z,58.07
2017-03-14T10:39:00.662Z,57.87
2017-03-14T10:40:00.650Z,58.07
2017-03-14T10:41:00.646Z,57.87
2017-03-14T10:42:00.641Z,58.07
2017-03-14T10:43:00.633Z,58.26
2017-03-14T10:44:00.627Z,58.54
2017-03-14T10:45:00.623Z,58.93
2017-03-14T10:46:00.317Z,58.45
2017-03-14T10:47:00.615Z,57.97
2017-03-14T10:48:00.607Z,57.59
2017-03-14T10:49:00.601Z,58.14
2017-03-14T10:50:00.598Z,58.8
2017-03-14T10:51:00.590Z,58.7
2017-03-14T10:52:00.585Z,58.8
2017-03-14T10:53:00.582Z,58.61
2017-03-14T10:54:00.574Z,57.75
2017-03-14T10:55:00.575Z,58.33
2017-03-14T10:56:00.565Z,57.87
2017-03-14T10:57:00.561Z,57.87
2017-03-14T10:58:00.557Z,57.21
2017-03-14T10:59:00.575Z,57.21
2017-03-14T11:00:00.544Z,57.21
2017-03-14T11:01:00.538Z,57.59
2017-03-14T11:02:00.542Z,57.4
2017-03-14T11:03:00.533Z,56.63
2017-03-14T11:04:00.525Z,56.45
2017-03-14T11:05:00.519Z,57.5
2017-03-14T11:06:00.515Z,57.11
2017-03-14T11:07:00.511Z,56.92
2017-03-14T11:08:00.505Z,56.92
2017-03-14T11:09:00.500Z,57.21
2017-03-14T11:10:00.193Z,57.78
2017-03-14T11:11:00.188Z,57.68
2017-03-14T11:12:00.486Z,57.31
2017-03-14T11:13:00.176Z,57.21
2017-03-14T11:14:00.476Z,57.65
2017-03-14T11:15:00.169Z,57.94
2017-03-14T11:16:00.161Z,58.04
2017-03-14T11:17:00.472Z,57.94
2017-03-14T11:18:00.154Z,58.36
2017-03-14T11:19:00.148Z,58.51
2017-03-14T11:20:00.445Z,58.8
2017-03-14T11:21:00.139Z,58.04
2017-03-14T11:22:00.437Z,58.16
2017-03-14T11:23:00.432Z,58.8
2017-03-14T11:24:00.426Z,58.7
2017-03-14T11:25:00.424Z,58.64
2017-03-14T11:26:00.416Z,58.07
2017-03-14T11:27:00.409Z,57.94
2017-03-14T11:28:00.404Z,58.07
2017-03-14T11:29:00.400Z,58.16
2017-03-14T11:30:00.394Z,58.45
2017-03-14T11:31:00.390Z,58.42
2017-03-14T11:32:00.081Z,58.51
2017-03-14T11:33:00.075Z,58.7
2017-03-14T11:34:00.371Z,58.61
2017-03-14T11:35:00.064Z,58.51
2017-03-14T11:36:00.364Z,58.9
2017-03-14T11:37:00.054Z,59.56
2017-03-14T11:38:00.049Z,59.66
2017-03-14T11:39:00.348Z,59.47
2017-03-14T11:40:00.037Z,59.56
2017-03-14T11:41:00.033Z,59.47
2017-03-14T11:42:00.329Z,59.76
2017-03-14T11:43:00.328Z,59.47
2017-03-14T11:44:00.319Z,59.76
2017-03-14T11:45:00.313Z,59.47
2017-03-14T11:46:00.310Z,59.38
2017-03-14T11:47:00.304Z,59.66
2017-03-14T11:48:00.295Z,59.66
2017-03-14T11:49:00.291Z,58.7
2017-03-14T11:50:00.285Z,58.7
2017-03-14T11:51:00.278Z,58.9
2017-03-14T11:52:00.274Z,58.73
2017-03-14T11:53:00.267Z,58.7
2017-03-14T11:54:00.263Z,58.7
2017-03-14T11:55:00.257Z,58.8
2017-03-14T11:56:00.252Z,58.93
2017-03-14T11:57:00.244Z,58.83
2017-03-14T11:58:00.239Z,58.16
2017-03-14T11:59:00.233Z,58.93
2017-03-14T12:00:00.228Z,58.64
2017-03-14T12:01:00.224Z,58.26
2017-03-14T12:02:00.225Z,58.16
2017-03-14T12:03:00.212Z,58.16
2017-03-14T12:04:00.208Z,57.87
2017-03-14T12:05:00.204Z,58.07
2017-03-14T12:06:00.198Z,57.81
2017-03-14T12:07:00.190Z,57.62
2017-03-14T12:08:00.184Z,57.53
2017-03-14T12:09:00.180Z,57.33
2017-03-14T12:10:00.175Z,56.85
2017-03-14T12:11:00.174Z,56.6
2017-03-14T12:12:00.165Z,56.21
2017-03-14T12:13:00.159Z,55.74
2017-03-14T12:14:00.155Z,55.16
2017-03-14T12:15:00.149Z,55.26
2017-03-14T12:16:00.148Z,54.68
2017-03-14T12:17:00.142Z,54.43
2017-03-14T12:18:00.138Z,54.43
2017-03-14T12:19:00.131Z,54.43
2017-03-14T12:20:00.127Z,54.14
2017-03-14T12:21:00.123Z,53.75
2017-03-14T12:22:00.118Z,53.94
2017-03-14T12:23:00.118Z,54.07
2017-03-14T12:24:00.136Z,53.11
2017-03-14T12:25:00.110Z,53.3
2017-03-14T12:26:00.100Z,53.3
2017-03-14T12:27:00.120Z,52.73
2017-03-14T12:28:00.094Z,52.73
2017-03-14T12:29:00.087Z,53.11
2017-03-14T12:30:00.084Z,52.15
2017-03-14T12:31:00.081Z,52.06
2017-03-14T12:31:59.781Z,51.97
2017-03-14T12:33:00.073Z,52.06
2017-03-14T12:34:00.069Z,51.97
2017-03-14T12:35:00.065Z,51.97
2017-03-14T12:36:00.061Z,51.99
2017-03-14T12:37:00.057Z,51.99
2017-03-14T12:38:00.058Z,51.79
2017-03-14T12:39:00.051Z,51.61
2017-03-14T12:40:00.047Z,51.42
2017-03-14T12:41:00.044Z,50.56
2017-03-14T12:42:00.042Z,50.84
2017-03-14T12:43:00.036Z,50.96
2017-03-14T12:44:00.038Z,50.36
2017-03-14T12:45:00.030Z,50.46
2017-03-14T12:46:00.027Z,51.13
2017-03-14T12:47:00.022Z,51.13
2017-03-14T12:48:00.022Z,51.32
2017-03-14T12:49:00.015Z,51.42
2017-03-14T12:50:00.012Z,51.61
2017-03-14T12:51:00.010Z,51.42
2017-03-14T12:52:00.006Z,51.42
2017-03-14T12:53:00.003Z,51.51
2017-03-14T12:54:00.000Z,51.42
2017-03-14T12:54:59.993Z,51.42
2017-03-14T12:55:59.990Z,51.42
2017-03-14T12:56:59.989Z,51.61
2017-03-14T12:57:59.983Z,51.79